Terminal Aerodrome Forecast
Issued by NWS Green Bay, WI

Home | Current Version | Previous Version | Text Only | Print | Product List | Glossary On
Versions: 1 2 3 4 5 6 7 8 9 10 11 12 13 14 15 16 17 18 19
000
FTUS43 KGRB 042326
TAFGRB
TAF
KGRB 042326Z 0500/0524 17004KT 1 1/2SM -SN BKN006 OVC012
     FM050100 21007KT 2SM -FZDZSN BKN006 OVC012
     FM050300 23009KT 4SM BR OVC012
     FM050600 24008KT P6SM OVC015
     FM051400 21006KT P6SM BKN250
     FM051800 17009KT P6SM BKN090=

USA.gov is the U.S. government's official web portal to all federal, state and local government web resources and services.